createdAt,value
2022-08-12T00:10:14.644Z,71.89
2022-08-12T00:20:36.314Z,69.30
2022-08-12T00:30:59.650Z,69.58
2022-08-12T00:41:21.884Z,69.01
2022-08-12T00:51:49.503Z,70.67
2022-08-12T01:02:11.686Z,73.17
2022-08-12T01:12:18.174Z,73.16
2022-08-12T01:22:26.693Z,73.42
2022-08-12T01:32:38.104Z,75.52
2022-08-12T01:42:45.920Z,76.83
2022-08-12T01:52:59.367Z,76.89
2022-08-12T02:03:17.436Z,77.94
2022-08-12T02:13:51.189Z,76.01
2022-08-12T02:23:55.175Z,69.42
2022-08-12T02:34:00.348Z,64.08
2022-08-12T02:44:09.583Z,55.68
2022-08-12T02:54:15.466Z,50.65
2022-08-12T03:04:28.434Z,52.14
2022-08-12T03:14:36.232Z,49.15
2022-08-12T03:24:45.285Z,49.40
2022-08-12T03:34:51.777Z,46.65
2022-08-12T03:45:30.810Z,45.35
2022-08-12T03:55:56.569Z,45.59
2022-08-12T04:05:59.618Z,46.42
2022-08-12T04:16:10.265Z,44.73
2022-08-12T04:26:13.397Z,41.23
2022-08-12T04:36:25.546Z,39.71
2022-08-12T04:46:34.472Z,38.85
2022-08-12T04:56:40.676Z,35.66
2022-08-12T05:06:43.910Z,37.59
2022-08-12T05:16:50.709Z,36.15
2022-08-12T05:27:00.302Z,34.81
2022-08-12T05:37:06.125Z,35.15
2022-08-12T05:47:24.893Z,32.86
2022-08-12T06:09:25.617Z,32.68
2022-08-12T06:20:28.037Z,31.68
2022-08-12T06:30:08.523Z,30.93
2022-08-12T06:40:17.204Z,30.26
2022-08-12T06:50:38.176Z,31.33
2022-08-12T07:00:44.384Z,30.25
2022-08-12T07:10:59.458Z,30.34
2022-08-12T07:21:04.772Z,30.35
2022-08-12T07:31:12.133Z,30.36
2022-08-12T07:41:23.041Z,29.58
2022-08-12T07:51:28.765Z,31.94
2022-08-12T08:01:33.119Z,32.71
2022-08-12T08:11:59.851Z,32.11
2022-08-12T08:22:03.130Z,32.42
2022-08-12T08:32:10.816Z,32.25
2022-08-12T08:42:40.640Z,32.99
2022-08-12T08:52:46.435Z,32.16
2022-08-12T09:02:58.570Z,32.26
2022-08-12T09:14:12.033Z,33.63
2022-08-12T09:24:06.066Z,33.60
2022-08-12T09:34:27.306Z,33.98
2022-08-12T09:45:23.017Z,34.97
2022-08-12T09:56:06.509Z,33.16
2022-08-12T10:06:26.273Z,32.35
2022-08-12T10:16:22.434Z,32.70
2022-08-12T10:26:45.023Z,32.29
2022-08-12T10:37:23.170Z,32.07
2022-08-12T10:48:20.298Z,32.20
2022-08-12T10:58:30.770Z,33.15
2022-08-12T11:08:48.247Z,31.45
2022-08-12T11:18:55.135Z,31.33
2022-08-12T11:29:06.092Z,30.55
2022-08-12T11:39:46.490Z,31.62
2022-08-12T11:49:52.049Z,31.59
2022-08-12T12:10:39.888Z,31.63
2022-08-12T12:20:52.791Z,31.51
2022-08-12T12:30:56.091Z,31.58
2022-08-12T12:41:14.402Z,32.19
2022-08-12T12:52:17.152Z,32.71
2022-08-12T13:01:55.890Z,32.71
2022-08-12T13:12:17.162Z,33.02
2022-08-12T13:22:37.637Z,33.09
2022-08-12T13:33:00.324Z,32.97
2022-08-12T13:43:08.281Z,33.52
2022-08-12T13:53:23.689Z,33.67
2022-08-12T14:03:50.645Z,33.71
2022-08-12T14:14:03.127Z,33.65
2022-08-12T14:24:15.967Z,33.32
2022-08-12T14:34:21.367Z,33.81
2022-08-12T14:44:59.167Z,35.53
2022-08-12T15:06:04.927Z,35.40
2022-08-12T15:15:56.924Z,36.19
2022-08-12T15:26:40.288Z,36.49
2022-08-12T15:36:55.757Z,37.30
2022-08-12T15:47:01.684Z,39.67
2022-08-12T15:57:17.167Z,40.32
2022-08-12T16:07:39.335Z,41.87
2022-08-12T16:18:19.215Z,44.05
2022-08-12T16:29:14.983Z,43.72
2022-08-12T16:39:24.655Z,46.42
2022-08-12T16:49:43.501Z,47.71
2022-08-12T16:59:54.431Z,49.30
2022-08-12T17:10:13.981Z,49.94
2022-08-12T17:20:40.556Z,50.61
2022-08-12T17:31:10.844Z,49.05
2022-08-12T17:41:22.819Z,51.41
2022-08-12T17:51:50.366Z,51.53
2022-08-12T18:02:06.686Z,52.62
2022-08-12T18:12:35.380Z,52.72
2022-08-12T18:22:39.603Z,53.34
2022-08-12T18:32:58.716Z,52.91
2022-08-12T18:43:05.801Z,52.92
2022-08-12T18:54:04.917Z,52.49
2022-08-12T19:03:43.949Z,52.26
2022-08-12T19:14:09.468Z,52.01
2022-08-12T19:24:33.429Z,52.58
2022-08-12T19:36:06.883Z,52.92
2022-08-12T19:45:07.005Z,54.60
2022-08-12T19:55:21.993Z,55.88
2022-08-12T20:06:06.841Z,57.18
2022-08-12T20:15:59.712Z,57.40
2022-08-12T20:26:10.448Z,58.39
2022-08-12T20:36:41.006Z,58.82
2022-08-12T20:46:42.161Z,58.56
2022-08-12T20:56:48.736Z,58.63
2022-08-12T21:07:04.475Z,59.18
2022-08-12T21:17:15.984Z,59.82
2022-08-12T21:27:27.491Z,61.16
2022-08-12T21:37:53.300Z,61.53
2022-08-12T21:47:57.373Z,62.14
2022-08-12T21:58:12.049Z,62.38
2022-08-12T22:08:43.660Z,62.35
2022-08-12T22:18:52.130Z,63.80
2022-08-12T22:29:21.170Z,63.85
2022-08-12T22:39:26.499Z,63.97
2022-08-12T22:49:36.485Z,64.37
2022-08-12T22:59:56.532Z,64.46
2022-08-12T23:10:00.115Z,66.13
2022-08-12T23:20:11.143Z,66.24
2022-08-12T23:30:18.501Z,67.00
2022-08-12T23:40:25.949Z,66.62
2022-08-12T23:50:34.575Z,67.80
